Time;durP1;ratioP1;P1;durP2;ratioP2;P2;SDS_P1;SDS_P2;PMS_P1;PMS_P2;Temp;Humidity;BMP_temperature;BMP_pressure;BME280_temperature;BME280_humidity;BME280_pressure;Samples;Min_cycle;Max_cycle;Signal;HPM_P1;HPM_P2
2021/01/20 00:01:20;;;;;;;6.37;5.40;;;;;;;6.30;100.00;99161.31;4961905;29;20200;-37
2021/01/20 00:04:07;;;;;;;7.60;6.00;;;;;;;6.38;100.00;99151.00;4962079;28;20244;-35
2021/01/20 00:06:53;;;;;;;8.07;6.40;;;;;;;6.25;100.00;99155.38;4961304;29;20203;-38
2021/01/20 00:09:40;;;;;;;7.90;5.57;;;;;;;6.31;100.00;99142.50;4961975;29;20244;-38
2021/01/20 00:12:27;;;;;;;8.07;5.33;;;;;;;6.28;100.00;99136.53;4961781;29;20355;-34
2021/01/20 00:15:18;;;;;;;8.27;5.47;;;;;;;6.40;100.00;99134.66;4961479;29;20603;-37
2021/01/20 00:18:05;;;;;;;7.23;5.33;;;;;;;6.32;100.00;99123.66;4961710;29;20200;-34
2021/01/20 00:20:52;;;;;;;10.00;5.60;;;;;;;6.49;100.00;99137.16;4961245;29;20204;-37
2021/01/20 00:23:39;;;;;;;8.43;6.57;;;;;;;6.41;100.00;99133.81;4961731;29;20303;-37
2021/01/20 00:26:30;;;;;;;9.20;6.63;;;;;;;6.49;100.00;99131.16;4960748;29;20494;-40
2021/01/20 00:29:16;;;;;;;8.80;5.73;;;;;;;6.33;100.00;99117.66;4942178;29;20229;-39
2021/01/20 00:32:04;;;;;;;8.20;5.30;;;;;;;6.39;100.00;99115.03;4942251;29;20260;-39
2021/01/20 00:34:54;;;;;;;6.87;5.50;;;;;;;6.29;100.00;99102.28;4942158;29;20272;-36
2021/01/20 00:37:41;;;;;;;11.70;5.97;;;;;;;6.30;100.00;99107.41;4942080;29;20265;-34
2021/01/20 00:40:27;;;;;;;8.80;5.40;;;;;;;6.17;100.00;99095.56;4941978;29;20200;-36
2021/01/20 00:43:13;;;;;;;8.20;5.40;;;;;;;6.19;100.00;99104.91;4941993;29;20200;-38
2021/01/20 00:46:03;;;;;;;9.97;5.73;;;;;;;6.22;100.00;99089.50;4941925;29;20256;-37
2021/01/20 00:48:50;;;;;;;7.57;4.90;;;;;;;6.24;100.00;99081.78;4941846;29;20320;-37
2021/01/20 00:51:37;;;;;;;7.03;5.17;;;;;;;6.14;100.00;99099.00;4941598;29;20209;-37
2021/01/20 00:54:24;;;;;;;7.10;4.70;;;;;;;6.12;100.00;99092.19;4942007;29;20209;-39
2021/01/20 00:57:10;;;;;;;10.23;4.87;;;;;;;6.10;100.00;99083.66;4958814;28;20231;-38
2021/01/20 00:59:59;;;;;;;8.77;4.87;;;;;;;6.11;100.00;99088.75;4980038;28;20207;-36
2021/01/20 01:02:45;;;;;;;6.37;4.90;;;;;;;6.12;100.00;99087.91;4980171;28;20207;-38
2021/01/20 01:05:33;;;;;;;4.27;3.73;;;;;;;6.14;100.00;99090.44;4980601;28;20211;-38
2021/01/20 01:08:22;;;;;;;7.90;4.77;;;;;;;6.08;100.00;99087.94;4979675;28;20235;-37
2021/01/20 01:11:10;;;;;;;6.53;3.90;;;;;;;6.14;100.00;99075.06;4978632;28;20203;-39
2021/01/20 01:13:57;;;;;;;5.43;3.73;;;;;;;6.13;100.00;99079.34;4980014;28;20310;-35
2021/01/20 01:16:44;;;;;;;6.60;3.80;;;;;;;6.12;100.00;99079.34;4979974;28;20207;-37
2021/01/20 01:19:30;;;;;;;6.60;3.83;;;;;;;6.19;100.00;99074.13;4979615;28;20192;-39
2021/01/20 01:22:17;;;;;;;13.40;3.93;;;;;;;6.12;100.00;99075.06;4979482;28;20226;-37
2021/01/20 01:25:05;;;;;;;7.07;3.53;;;;;;;6.08;100.00;99078.53;4979747;28;20606;-37
2021/01/20 01:27:52;;;;;;;4.37;3.30;;;;;;;6.20;100.00;99075.81;4979551;28;20230;-40
2021/01/20 01:30:38;;;;;;;6.67;3.20;;;;;;;6.05;100.00;99070.84;4979425;28;20203;-36
2021/01/20 01:33:26;;;;;;;6.13;3.33;;;;;;;6.03;100.00;99077.72;4979310;28;20259;-36
2021/01/20 01:36:13;;;;;;;3.33;2.70;;;;;;;6.05;100.00;99070.84;4979554;28;20202;-39
2021/01/20 01:39:01;;;;;;;5.40;3.00;;;;;;;6.09;100.00;99063.97;4979481;28;20511;-37
2021/01/20 01:41:47;;;;;;;6.47;3.40;;;;;;;5.92;100.00;99066.72;4979601;28;20294;-38
2021/01/20 01:44:34;;;;;;;6.03;3.40;;;;;;;5.90;100.00;99050.47;4979555;28;20613;-39
2021/01/20 01:47:20;;;;;;;4.17;2.83;;;;;;;6.10;100.00;99051.13;4979028;28;20202;-36
2021/01/20 01:50:12;;;;;;;6.43;2.97;;;;;;;6.03;100.00;99059.75;4978937;28;20203;-39
2021/01/20 01:52:58;;;;;;;3.60;2.40;;;;;;;6.05;100.00;99062.28;4979313;28;20207;-40
2021/01/20 01:55:48;;;;;;;5.20;2.70;;;;;;;6.07;100.00;99066.56;4979277;28;20207;-37
2021/01/20 01:58:35;;;;;;;7.77;3.00;;;;;;;6.04;100.00;99064.00;4978626;28;20254;-35
2021/01/20 02:01:21;;;;;;;4.20;3.50;;;;;;;6.11;100.00;99050.25;4979086;28;20466;-38
2021/01/20 02:04:08;;;;;;;5.00;3.17;;;;;;;6.01;100.00;99047.78;4979095;28;20207;-37
2021/01/20 02:06:56;;;;;;;4.23;2.50;;;;;;;6.03;100.00;99044.34;4979152;28;20199;-40
2021/01/20 02:09:42;;;;;;;6.57;2.90;;;;;;;5.99;100.00;99045.25;4978951;28;20479;-39
2021/01/20 02:12:50;;;;;;;4.40;2.80;;;;;;;6.05;100.00;99039.19;4978637;28;20198;-38
2021/01/20 02:15:43;;;;;;;6.57;3.40;;;;;;;6.04;100.00;99030.63;4978790;28;20307;-40
2021/01/20 02:18:33;;;;;;;3.53;2.70;;;;;;;5.96;100.00;99016.19;4978847;28;20602;-40
2021/01/20 02:21:44;;;;;;;6.20;2.90;;;;;;;6.15;100.00;99025.41;4978729;28;20211;-40
2021/01/20 02:24:42;;;;;;;5.17;2.93;;;;;;;6.05;100.00;99016.94;4979027;28;20203;-37
2021/01/20 02:27:41;;;;;;;5.27;2.90;;;;;;;5.98;100.00;99014.47;4978670;28;20191;-36
2021/01/20 02:30:29;;;;;;;4.30;3.03;;;;;;;6.05;100.00;99014.38;4978745;28;20307;-39
2021/01/20 02:33:20;;;;;;;3.93;2.50;;;;;;;5.82;100.00;99016.28;4977572;28;20656;-39
2021/01/20 02:36:11;;;;;;;5.77;2.70;;;;;;;5.98;100.00;99012.75;4978422;28;20199;-38
2021/01/20 02:39:00;;;;;;;4.43;3.20;;;;;;;5.86;100.00;99008.56;4978430;28;20479;-38
2021/01/20 02:41:46;;;;;;;6.63;3.00;;;;;;;5.99;100.00;99019.59;4978070;28;20203;-40
2021/01/20 02:44:35;;;;;;;6.30;3.03;;;;;;;6.02;100.00;99013.56;4978130;28;20199;-39
2021/01/20 02:47:24;;;;;;;6.20;3.30;;;;;;;5.94;100.00;99011.09;4978500;28;20262;-39
2021/01/20 02:50:11;;;;;;;6.23;3.43;;;;;;;5.96;100.00;99008.50;4977981;28;20199;-37
2021/01/20 02:53:05;;;;;;;6.67;4.23;;;;;;;6.05;100.00;99013.53;4978441;28;20207;-40
2021/01/20 02:55:56;;;;;;;7.07;3.70;;;;;;;6.15;100.00;99015.13;4978197;28;20366;-40
2021/01/20 02:58:46;;;;;;;5.07;3.23;;;;;;;6.13;100.00;99016.88;4978156;28;20203;-38
2021/01/20 03:01:34;;;;;;;5.33;3.93;;;;;;;6.19;100.00;99019.38;4978259;28;20200;-38
2021/01/20 03:04:26;;;;;;;7.30;3.27;;;;;;;6.19;100.00;99017.63;4978154;28;20351;-40
2021/01/20 03:07:14;;;;;;;5.70;3.53;;;;;;;6.20;100.00;99008.22;4978380;28;20366;-39
2021/01/20 03:10:01;;;;;;;5.40;3.63;;;;;;;6.17;100.00;99008.28;4978588;28;20760;-34
2021/01/20 03:12:48;;;;;;;6.80;3.27;;;;;;;6.19;100.00;98993.69;4978245;28;20202;-40
2021/01/20 03:15:37;;;;;;;7.43;3.73;;;;;;;6.22;100.00;98997.06;4978387;28;20479;-39
2021/01/20 03:18:24;;;;;;;6.60;4.40;;;;;;;6.21;100.00;98994.50;4978188;28;20199;-39
2021/01/20 03:21:13;;;;;;;3.93;3.50;;;;;;;6.35;100.00;98986.66;4978476;28;20602;-36
2021/01/20 03:24:00;;;;;;;5.23;3.63;;;;;;;6.25;100.00;98982.47;4977827;28;20207;-39
2021/01/20 03:26:46;;;;;;;4.53;4.10;;;;;;;6.31;100.00;98967.88;4977773;28;20211;-39
2021/01/20 03:29:32;;;;;;;7.47;3.50;;;;;;;6.44;100.00;98969.41;4978364;28;20243;-39
2021/01/20 03:32:19;;;;;;;4.30;3.90;;;;;;;6.50;100.00;98955.63;4977527;28;20207;-38
2021/01/20 03:35:09;;;;;;;4.73;3.20;;;;;;;6.46;100.00;98954.81;4980858;28;20207;-39
2021/01/20 03:37:57;;;;;;;6.37;3.80;;;;;;;6.49;100.00;98965.06;4981571;28;20203;-37
2021/01/20 03:40:44;;;;;;;6.37;3.27;;;;;;;6.60;100.00;98962.31;4981660;28;20203;-40
2021/01/20 03:43:30;;;;;;;5.60;3.10;;;;;;;6.52;100.00;98961.59;4981813;28;20199;-37
2021/01/20 03:46:17;;;;;;;4.53;3.93;;;;;;;6.67;100.00;98953.66;4981665;28;20673;-40
2021/01/20 03:49:05;;;;;;;3.67;3.30;;;;;;;6.70;100.00;98948.50;4981447;28;20306;-39
2021/01/20 03:51:51;;;;;;;3.80;3.40;;;;;;;6.67;100.00;98953.66;4981743;28;20211;-40
2021/01/20 03:54:39;;;;;;;4.27;3.40;;;;;;;6.79;100.00;98950.94;4981450;28;20203;-38
2021/01/20 03:57:27;;;;;;;5.67;3.50;;;;;;;6.81;100.00;98950.88;4981626;28;20245;-41
2021/01/20 04:00:15;;;;;;;4.57;3.33;;;;;;;6.84;100.00;98943.97;4981500;28;20195;-38
2021/01/20 04:03:03;;;;;;;7.23;3.27;;;;;;;6.85;100.00;98955.13;4981238;28;20682;-41
2021/01/20 04:05:50;;;;;;;3.50;2.93;;;;;;;6.92;100.00;98959.31;4981191;28;20203;-41
2021/01/20 04:08:37;;;;;;;3.87;3.00;;;;;;;7.01;100.00;98961.72;4981519;28;20231;-40
2021/01/20 04:11:24;;;;;;;4.70;3.47;;;;;;;6.87;100.00;98956.78;4981805;28;20195;-40
2021/01/20 04:14:11;;;;;;;4.77;3.17;;;;;;;7.03;100.00;98959.97;4981178;28;20206;-41
2021/01/20 04:16:58;;;;;;;4.87;3.30;;;;;;;6.92;100.00;98954.16;4980872;28;20215;-39
2021/01/20 04:19:44;;;;;;;4.80;2.80;;;;;;;7.03;100.00;98962.53;4980921;28;20204;-38
2021/01/20 04:22:31;;;;;;;4.63;3.53;;;;;;;7.06;100.00;98949.63;4981035;28;20208;-40
2021/01/20 04:25:18;;;;;;;3.57;3.00;;;;;;;7.03;100.00;98957.41;4981020;28;20204;-41
2021/01/20 04:28:05;;;;;;;5.20;3.10;;;;;;;7.06;100.00;98944.50;4980979;28;20506;-38
2021/01/20 04:30:51;;;;;;;5.07;3.47;;;;;;;7.06;100.00;98944.50;4980648;28;20207;-41
2021/01/20 04:33:38;;;;;;;5.47;3.30;;;;;;;7.19;100.00;98942.59;4980429;28;20303;-41
2021/01/20 04:36:25;;;;;;;3.83;3.40;;;;;;;7.20;100.00;98939.13;4980324;28;20209;-41
2021/01/20 04:39:11;;;;;;;3.17;2.87;;;;;;;7.22;100.00;98939.94;4980817;28;20293;-38
2021/01/20 04:41:58;;;;;;;4.73;3.40;;;;;;;7.29;100.00;98938.97;4980550;28;20252;-39
2021/01/20 04:44:48;;;;;;;7.60;3.00;;;;;;;7.15;100.00;98928.94;4980415;28;20270;-41
2021/01/20 04:47:35;;;;;;;4.87;3.20;;;;;;;7.20;100.00;98931.41;4979391;28;20204;-40
2021/01/20 04:50:23;;;;;;;3.63;3.20;;;;;;;7.31;100.00;98920.94;4980586;28;20195;-37
2021/01/20 04:53:11;;;;;;;3.70;3.00;;;;;;;7.33;100.00;98920.06;4980380;28;20344;-41
2021/01/20 04:56:01;;;;;;;4.30;3.17;;;;;;;7.35;100.00;98912.31;4980519;28;20229;-40
2021/01/20 04:58:47;;;;;;;4.33;3.00;;;;;;;7.26;100.00;98919.31;4980175;28;20225;-40
2021/01/20 05:01:35;;;;;;;3.73;3.00;;;;;;;7.34;100.00;98915.75;4979683;28;20267;-40
2021/01/20 05:04:23;;;;;;;2.93;2.73;;;;;;;7.20;100.00;98914.25;4979695;28;20489;-41
2021/01/20 05:07:09;;;;;;;4.10;3.27;;;;;;;7.21;100.00;98910.81;4980237;28;20610;-41
2021/01/20 05:09:56;;;;;;;3.83;2.70;;;;;;;7.32;100.00;98908.06;4979934;28;20238;-39
2021/01/20 05:12:44;;;;;;;3.33;2.80;;;;;;;7.31;100.00;98893.50;4980185;28;20483;-41
2021/01/20 05:15:32;;;;;;;3.27;2.90;;;;;;;7.26;100.00;98891.00;4979945;28;20208;-40
2021/01/20 05:18:20;;;;;;;4.10;3.10;;;;;;;7.26;100.00;98883.28;4979422;28;20342;-41
2021/01/20 05:21:15;;;;;;;4.53;2.90;;;;;;;7.36;100.00;98889.13;4979943;28;20347;-40
2021/01/20 05:24:20;;;;;;;3.27;2.70;;;;;;;7.43;100.00;98874.41;4980019;28;20205;-40
2021/01/20 05:27:07;;;;;;;3.47;2.53;;;;;;;7.35;100.00;98882.28;4979859;28;20211;-37
2021/01/20 05:30:01;;;;;;;4.10;3.30;;;;;;;7.50;100.00;98873.44;4979998;28;20222;-39
2021/01/20 05:32:55;;;;;;;4.13;2.90;;;;;;;7.54;100.00;98865.63;4979562;28;20256;-40
2021/01/20 05:35:43;;;;;;;7.50;3.50;;;;;;;7.63;100.00;98866.31;4979818;28;20265;-39
2021/01/20 05:38:36;;;;;;;4.50;2.83;;;;;;;7.58;100.00;98848.41;4979176;28;20270;-39
2021/01/20 05:41:24;;;;;;;3.77;2.97;;;;;;;7.55;100.00;98861.34;4979711;28;20613;-39
2021/01/20 05:44:13;;;;;;;3.00;2.70;;;;;;;7.53;100.00;98850.22;4979138;28;20493;-40
2021/01/20 05:47:06;;;;;;;4.40;3.00;;;;;;;7.55;100.00;98849.31;4979272;28;20350;-39
2021/01/20 05:50:04;;;;;;;2.73;2.50;;;;;;;7.58;100.00;98844.13;4979267;28;20286;-39
2021/01/20 05:53:04;;;;;;;3.37;2.80;;;;;;;7.56;100.00;98842.44;4979134;28;20398;-39
2021/01/20 05:56:02;;;;;;;4.13;3.37;;;;;;;7.60;100.00;98832.03;4979417;28;20480;-41
2021/01/20 05:58:49;;;;;;;5.10;2.83;;;;;;;7.65;100.00;98829.38;4978782;28;20536;-38
2021/01/20 06:01:38;;;;;;;2.90;2.70;;;;;;;7.66;100.00;98831.09;4978556;28;20586;-40
2021/01/20 06:04:25;;;;;;;3.47;2.43;;;;;;;7.64;100.00;98825.13;4978834;28;20214;-39
2021/01/20 06:07:13;;;;;;;3.47;2.70;;;;;;;7.73;100.00;98817.22;4978764;28;20490;-39
2021/01/20 06:10:02;;;;;;;4.00;3.10;;;;;;;7.68;100.00;98813.03;4979088;28;20530;-40
2021/01/20 06:12:49;;;;;;;3.50;3.20;;;;;;;7.71;100.00;98812.97;4978503;28;20277;-40
2021/01/20 06:15:35;;;;;;;4.47;3.20;;;;;;;7.71;100.00;98815.56;4978575;28;20206;-42
2021/01/20 06:18:24;;;;;;;4.80;2.87;;;;;;;7.68;100.00;98813.88;4979076;28;20285;-40
2021/01/20 06:21:12;;;;;;;6.20;3.27;;;;;;;7.79;100.00;98809.38;4979175;28;20231;-41
2021/01/20 06:24:03;;;;;;;21.93;12.00;;;;;;;7.72;100.00;98799.22;4978603;28;20258;-40
2021/01/20 06:26:57;;;;;;;6.10;4.33;;;;;;;7.86;100.00;98803.19;4977896;28;20199;-39
2021/01/20 06:29:49;;;;;;;3.67;3.23;;;;;;;7.86;100.00;98800.63;4978314;28;20234;-39
2021/01/20 06:32:41;;;;;;;7.13;4.97;;;;;;;7.66;100.00;98795.06;4978412;28;20339;-41
2021/01/20 06:35:38;;;;;;;5.83;5.23;;;;;;;7.59;100.00;98793.50;4978506;28;20342;-40
2021/01/20 06:38:35;;;;;;;4.00;3.20;;;;;;;7.86;100.00;98797.19;4978636;28;20245;-41
2021/01/20 06:41:36;;;;;;;4.00;2.83;;;;;;;7.81;100.00;98802.44;4978297;28;20620;-41
2021/01/20 06:44:24;;;;;;;2.80;2.60;;;;;;;7.92;100.00;98791.94;4977927;28;20722;-39
2021/01/20 06:47:10;;;;;;;3.20;2.60;;;;;;;7.90;100.00;98789.38;4978019;28;20600;-41
2021/01/20 06:50:02;;;;;;;4.07;3.00;;;;;;;8.15;99.46;98804.28;4978323;28;20237;-40
2021/01/20 06:53:03;;;;;;;3.10;2.63;;;;;;;8.14;95.76;98794.88;4978466;28;20616;-41
2021/01/20 06:55:50;;;;;;;3.10;2.80;;;;;;;8.10;96.61;98795.81;4978109;28;20710;-41
2021/01/20 06:58:36;;;;;;;3.70;3.30;;;;;;;8.15;94.25;98802.56;4978004;28;20297;-38
2021/01/20 07:01:26;;;;;;;3.70;2.63;;;;;;;8.25;96.57;98798.03;4977943;28;20204;-40
2021/01/20 07:04:53;;;;;;;3.03;2.73;;;;;;;8.25;95.16;98805.75;4977448;28;20203;-40
2021/01/20 07:07:54;;;;;;;2.93;2.67;;;;;;;8.22;94.51;98793.78;4995346;28;20198;-40
2021/01/20 07:11:08;;;;;;;2.80;2.60;;;;;;;8.27;92.98;98801.44;5001922;28;20190;-41
2021/01/20 07:13:54;;;;;;;2.40;2.30;;;;;;;8.34;92.76;98800.44;5001232;28;20612;-39
2021/01/20 07:16:42;;;;;;;4.03;2.70;;;;;;;8.34;93.50;98803.03;5001649;28;20206;-40
2021/01/20 07:19:29;;;;;;;3.00;2.53;;;;;;;8.30;93.08;98798.78;5001618;28;20342;-40
2021/01/20 07:22:17;;;;;;;2.73;2.53;;;;;;;8.32;95.31;98799.63;4990711;28;20206;-41
2021/01/20 07:25:08;;;;;;;2.70;2.50;;;;;;;8.33;95.38;98810.78;4984403;28;20641;-42
2021/01/20 07:27:54;;;;;;;3.73;2.53;;;;;;;8.43;94.52;98813.09;5000527;28;20262;-40
2021/01/20 07:30:42;;;;;;;3.07;2.80;;;;;;;8.33;97.12;98821.94;5000737;28;20265;-40
2021/01/20 07:33:33;;;;;;;3.13;2.70;;;;;;;8.47;97.92;98814.72;5000492;28;20310;-40
2021/01/20 07:36:23;;;;;;;2.77;2.20;;;;;;;8.52;99.25;98809.47;5000341;28;20213;-39
2021/01/20 07:39:20;;;;;;;3.63;2.40;;;;;;;8.38;100.00;98807.22;5000551;28;20206;-41
2021/01/20 07:42:10;;;;;;;2.53;2.33;;;;;;;8.37;100.00;98805.53;5000843;28;20203;-40
2021/01/20 07:44:57;;;;;;;2.60;2.40;;;;;;;8.39;100.00;98796.03;5000439;28;20772;-41
2021/01/20 07:47:49;;;;;;;2.50;2.30;;;;;;;8.53;100.00;98806.00;4999940;28;20199;-41
2021/01/20 07:50:42;;;;;;;2.33;2.20;;;;;;;8.61;100.00;98807.50;5000180;28;20234;-40
2021/01/20 07:53:28;;;;;;;3.20;2.40;;;;;;;8.54;100.00;98807.69;5000010;28;20210;-40
2021/01/20 07:56:22;;;;;;;2.53;2.33;;;;;;;8.58;100.00;98805.03;5000017;28;20301;-40
2021/01/20 07:59:16;;;;;;;2.17;2.00;;;;;;;8.63;100.00;98812.63;5000037;28;20203;-41
2021/01/20 08:02:06;;;;;;;2.27;2.10;;;;;;;8.64;100.00;98797.13;4999222;28;20203;-40
2021/01/20 08:04:59;;;;;;;3.43;2.37;;;;;;;8.62;100.00;98805.75;5000161;28;20297;-40
2021/01/20 08:07:47;;;;;;;2.63;2.20;;;;;;;8.61;100.00;98799.75;4999977;28;20209;-39
2021/01/20 08:10:34;;;;;;;2.33;2.07;;;;;;;8.70;100.00;98801.28;4999808;28;20266;-41
2021/01/20 08:13:20;;;;;;;5.00;2.27;;;;;;;8.70;100.00;98805.59;4999057;28;20203;-40
2021/01/20 08:16:09;;;;;;;3.10;2.20;;;;;;;8.80;100.00;98807.03;4998971;28;20239;-39
2021/01/20 08:18:56;;;;;;;1.60;1.50;;;;;;;8.80;100.00;98805.31;4999613;28;20475;-41
2021/01/20 08:21:45;;;;;;;2.07;1.97;;;;;;;8.84;100.00;98786.28;4999995;28;20198;-40
2021/01/20 08:24:34;;;;;;;1.80;1.70;;;;;;;8.87;100.00;98793.13;4999618;28;20671;-41
2021/01/20 08:27:31;;;;;;;2.37;2.20;;;;;;;8.92;100.00;98799.84;4999782;28;20214;-41
2021/01/20 08:30:32;;;;;;;2.13;1.73;;;;;;;8.97;100.00;98803.16;4999671;28;20230;-41
2021/01/20 08:33:20;;;;;;;1.83;1.73;;;;;;;8.93;100.00;98793.81;4998986;28;20198;-41
2021/01/20 08:36:23;;;;;;;1.97;1.77;;;;;;;8.84;100.00;98801.78;4999975;28;20215;-40
2021/01/20 08:39:18;;;;;;;2.07;1.87;;;;;;;8.91;100.00;98794.72;4999717;28;20203;-41
2021/01/20 08:42:22;;;;;;;1.87;1.77;;;;;;;8.88;100.00;98798.22;4999265;28;20199;-39
2021/01/20 08:45:33;;;;;;;3.40;1.70;;;;;;;8.95;100.00;98794.63;4998877;28;20202;-41
2021/01/20 08:48:37;;;;;;;2.00;1.80;;;;;;;9.11;100.00;98802.78;4989545;28;20207;-41
2021/01/20 08:51:23;;;;;;;2.50;2.10;;;;;;;8.93;100.00;98806.72;4999521;28;20302;-41
2021/01/20 08:54:10;;;;;;;2.83;1.97;;;;;;;9.04;98.53;98805.56;4999320;28;20624;-41
2021/01/20 08:57:14;;;;;;;2.47;2.27;;;;;;;9.11;99.58;98795.06;4998079;28;20242;-40
2021/01/20 09:00:02;;;;;;;1.83;1.73;;;;;;;9.17;98.84;98800.06;4998975;28;20206;-41
2021/01/20 09:03:12;;;;;;;2.37;1.73;;;;;;;9.11;98.26;98802.78;4999178;28;20206;-39
2021/01/20 09:06:05;;;;;;;2.07;1.97;;;;;;;9.06;97.64;98794.31;4998057;28;20206;-40
2021/01/20 09:08:53;;;;;;;4.70;2.20;;;;;;;9.15;96.74;98798.41;4998726;28;20226;-39
2021/01/20 09:11:42;;;;;;;2.37;2.17;;;;;;;9.19;96.80;98797.44;4998347;28;20289;-40
2021/01/20 09:14:30;;;;;;;2.43;1.90;;;;;;;9.23;95.31;98792.13;4998865;28;20199;-42
2021/01/20 09:17:18;;;;;;;1.93;1.83;;;;;;;9.13;94.26;98790.72;4999975;28;20477;-40
2021/01/20 09:20:07;;;;;;;3.07;1.90;;;;;;;9.23;94.32;98792.13;4998635;28;20199;-41
2021/01/20 09:22:54;;;;;;;2.77;2.17;;;;;;;9.27;94.42;98790.31;4998949;28;20238;-38
2021/01/20 09:25:46;;;;;;;2.03;1.93;;;;;;;9.20;95.83;98792.22;4996602;28;20312;-39
2021/01/20 09:28:35;;;;;;;1.97;1.80;;;;;;;9.22;96.99;98798.19;4979066;28;20199;-40
2021/01/20 09:31:22;;;;;;;3.17;1.80;;;;;;;9.27;99.35;98805.81;4978871;28;20580;-40
2021/01/20 09:34:10;;;;;;;2.43;1.57;;;;;;;9.29;99.03;98814.34;4978261;28;20510;-36
2021/01/20 09:36:59;;;;;;;2.53;1.80;;;;;;;9.20;100.00;98799.09;4978795;28;20290;-41
2021/01/20 09:39:45;;;;;;;3.77;2.30;;;;;;;9.13;100.00;98793.28;4979207;28;20198;-40
2021/01/20 09:42:32;;;;;;;2.23;1.97;;;;;;;9.34;99.91;98799.59;4978458;28;20212;-39
2021/01/20 09:45:21;;;;;;;2.37;2.17;;;;;;;9.26;99.62;98798.94;4978539;28;20207;-40
2021/01/20 09:48:08;;;;;;;2.47;2.27;;;;;;;9.33;99.58;98796.16;4978855;28;20285;-39
2021/01/20 09:50:56;;;;;;;1.70;1.60;;;;;;;9.42;97.88;98791.63;4978764;28;20634;-40
2021/01/20 09:53:43;;;;;;;2.03;1.90;;;;;;;9.21;95.81;98790.47;4978639;28;20222;-39
2021/01/20 09:56:31;;;;;;;2.20;2.00;;;;;;;9.30;94.93;98783.34;4978356;28;20242;-35
2021/01/20 09:59:24;;;;;;;3.20;1.77;;;;;;;9.58;94.95;98788.59;4978211;28;20345;-38
2021/01/20 10:02:10;;;;;;;2.20;2.00;;;;;;;9.39;93.34;98777.09;4978908;28;20204;-37
2021/01/20 10:04:59;;;;;;;2.10;1.93;;;;;;;9.70;90.97;98771.88;4978197;28;20207;-41
2021/01/20 10:07:47;;;;;;;4.07;1.83;;;;;;;10.41;88.28;98784.34;4978390;28;20203;-40
2021/01/20 10:10:39;;;;;;;2.20;2.00;;;;;;;10.08;87.04;98775.91;4983006;28;20229;-39
2021/01/20 10:13:43;;;;;;;2.17;1.97;;;;;;;10.07;88.87;98781.97;4988658;28;20412;-41
2021/01/20 10:16:58;;;;;;;2.87;2.20;;;;;;;10.25;87.31;98780.56;4997204;28;20210;-41
2021/01/20 10:19:55;;;;;;;1.90;1.80;;;;;;;9.84;88.77;98787.81;4997716;28;20367;-37
2021/01/20 10:22:41;;;;;;;2.40;2.20;;;;;;;9.55;90.21;98774.91;4997588;28;20585;-40
2021/01/20 10:25:32;;;;;;;2.40;2.20;;;;;;;9.67;90.10;98784.88;4996494;28;20214;-36
2021/01/20 10:28:21;;;;;;;2.50;2.20;;;;;;;9.79;89.49;98781.13;4997763;28;20339;-37
2021/01/20 10:31:16;;;;;;;2.23;2.03;;;;;;;9.73;89.75;98776.97;4997456;28;20205;-39
2021/01/20 10:34:07;;;;;;;2.43;2.23;;;;;;;9.60;88.89;98771.28;4997976;28;20206;-39
2021/01/20 10:36:53;;;;;;;2.90;1.97;;;;;;;10.63;82.69;98772.41;4997709;28;20486;-36
2021/01/20 10:39:40;;;;;;;13.40;6.97;;;;;;;10.80;83.18;98742.53;4997725;28;20710;-40
2021/01/20 10:42:31;;;;;;;2.90;2.20;;;;;;;11.02;80.82;98746.94;4997279;28;20202;-39
2021/01/20 10:45:17;;;;;;;2.43;2.07;;;;;;;11.15;79.05;98749.94;4997146;28;20215;-37
2021/01/20 10:48:07;;;;;;;2.60;2.37;;;;;;;11.22;79.05;98732.44;4996690;28;20289;-39
2021/01/20 10:50:57;;;;;;;1.70;1.60;;;;;;;10.92;79.95;98731.78;4997608;28;20628;-36
2021/01/20 10:53:44;;;;;;;2.23;2.00;;;;;;;11.48;78.46;98723.72;4997178;28;20258;-37
2021/01/20 10:56:33;;;;;;;1.93;1.67;;;;;;;11.79;76.73;98729.44;4997048;28;20254;-40
2021/01/20 10:59:23;;;;;;;2.00;1.90;;;;;;;11.60;77.41;98716.31;4997636;28;20210;-39
2021/01/20 11:02:11;;;;;;;2.27;2.17;;;;;;;11.78;75.57;98719.16;4997601;28;20194;-37
2021/01/20 11:04:58;;;;;;;2.40;2.20;;;;;;;11.39;75.98;98704.19;4998761;28;20482;-38
2021/01/20 11:07:45;;;;;;;4.70;2.10;;;;;;;11.43;76.43;98702.31;5004501;28;20254;-37
2021/01/20 11:10:36;;;;;;;2.13;1.97;;;;;;;12.32;72.87;98700.56;5016810;28;20612;-38
2021/01/20 11:13:26;;;;;;;2.03;1.80;;;;;;;11.58;72.83;98697.44;5011694;28;20299;-38
2021/01/20 11:16:18;;;;;;;3.17;2.47;;;;;;;12.08;70.60;98698.06;4997864;28;20330;-40
2021/01/20 11:19:09;;;;;;;2.10;1.97;;;;;;;12.01;71.95;98688.84;4997610;28;20767;-37
2021/01/20 11:21:56;;;;;;;2.97;2.40;;;;;;;11.88;70.81;98682.47;4997302;28;20210;-40
2021/01/20 11:24:45;;;;;;;2.87;2.50;;;;;;;12.25;67.98;98688.75;4997207;28;20258;-36
2021/01/20 11:27:50;;;;;;;2.33;2.13;;;;;;;12.13;69.51;98697.88;4997960;28;20206;-38
2021/01/20 11:30:40;;;;;;;3.03;2.10;;;;;;;13.08;68.19;98692.94;4997260;28;20231;-37
2021/01/20 11:33:31;;;;;;;2.70;2.50;;;;;;;12.44;66.11;98702.66;4997493;28;20219;-40
2021/01/20 11:36:20;;;;;;;2.43;2.23;;;;;;;12.55;67.86;98699.63;4989980;28;20207;-36
2021/01/20 11:39:09;;;;;;;2.50;2.10;;;;;;;12.03;68.97;98687.03;4977174;28;20203;-34
2021/01/20 11:41:59;;;;;;;3.77;2.07;;;;;;;11.88;71.14;98685.06;4977145;28;20195;-40
2021/01/20 11:44:48;;;;;;;2.30;2.10;;;;;;;12.32;70.35;98691.03;4979325;28;20277;-41
2021/01/20 11:47:38;;;;;;;2.87;2.17;;;;;;;12.04;70.31;98678.34;4996340;28;20214;-36
2021/01/20 11:50:27;;;;;;;3.07;2.30;;;;;;;11.88;71.53;98672.09;4990894;28;20227;-38
2021/01/20 11:53:16;;;;;;;2.57;2.37;;;;;;;11.63;68.47;98668.75;4977414;28;20207;-36
2021/01/20 11:56:05;;;;;;;2.93;1.93;;;;;;;11.55;69.95;98674.25;4990539;28;20699;-39
2021/01/20 11:58:51;;;;;;;2.50;2.30;;;;;;;11.27;68.69;98660.63;4994802;28;20261;-38
2021/01/20 12:01:38;;;;;;;2.53;2.20;;;;;;;11.50;70.09;98654.59;4998548;28;20203;-37
2021/01/20 12:04:25;;;;;;;2.60;2.40;;;;;;;11.35;65.87;98651.69;4998797;28;20284;-36
2021/01/20 12:07:12;;;;;;;2.03;1.83;;;;;;;11.40;67.92;98654.09;4996738;28;20210;-37
2021/01/20 12:09:59;;;;;;;3.93;2.37;;;;;;;11.61;66.98;98647.22;4984787;28;20247;-35
2021/01/20 12:12:48;;;;;;;3.17;2.17;;;;;;;11.83;67.35;98648.09;4992169;28;20549;-39
2021/01/20 12:15:34;;;;;;;2.07;1.97;;;;;;;11.86;68.14;98632.44;4987786;28;20226;-38
2021/01/20 12:18:21;;;;;;;4.70;2.40;;;;;;;11.72;64.25;98617.44;5000023;28;20198;-36
2021/01/20 12:21:09;;;;;;;1.93;1.83;;;;;;;11.72;63.72;98611.41;4991542;28;20259;-35
2021/01/20 12:24:01;;;;;;;2.20;2.00;;;;;;;11.32;65.05;98623.31;4979891;28;20383;-35
2021/01/20 12:26:50;;;;;;;2.60;2.40;;;;;;;11.19;64.78;98632.44;4980127;28;20223;-39
2021/01/20 12:29:37;;;;;;;2.60;1.80;;;;;;;11.19;64.94;98623.88;4982708;28;20238;-37
2021/01/20 12:32:27;;;;;;;4.50;2.27;;;;;;;11.17;65.51;98634.28;4999255;28;20198;-39
2021/01/20 12:35:14;;;;;;;2.77;2.30;;;;;;;11.29;64.75;98620.00;4997495;28;20630;-37
2021/01/20 12:38:18;;;;;;;2.43;2.23;;;;;;;11.31;64.82;98621.63;4980105;28;20301;-35
2021/01/20 12:41:05;;;;;;;2.73;2.33;;;;;;;11.21;64.23;98622.88;4980339;28;20196;-35
2021/01/20 12:43:52;;;;;;;2.40;2.20;;;;;;;11.24;64.73;98620.19;4979921;28;20302;-37
2021/01/20 12:46:39;;;;;;;2.30;2.20;;;;;;;11.16;64.95;98613.63;4979355;28;20211;-38
2021/01/20 12:49:26;;;;;;;3.57;2.10;;;;;;;11.19;64.22;98605.75;4979853;28;20219;-35
2021/01/20 12:52:12;;;;;;;2.40;2.20;;;;;;;11.00;62.04;98605.56;4998062;28;20206;-38
2021/01/20 12:54:59;;;;;;;2.80;2.43;;;;;;;11.01;64.73;98599.50;4998711;28;20206;-37
2021/01/20 12:57:47;;;;;;;2.90;2.40;;;;;;;11.12;64.77;98593.94;4996078;28;20248;-39
2021/01/20 13:00:36;;;;;;;2.20;2.00;;;;;;;11.00;64.00;98602.97;4990692;28;20507;-36
2021/01/20 13:03:23;;;;;;;2.47;2.27;;;;;;;11.02;65.21;98585.66;4979248;28;20207;-37
2021/01/20 13:06:10;;;;;;;4.27;2.50;;;;;;;11.01;64.01;98584.81;4980377;28;20226;-36
2021/01/20 13:08:57;;;;;;;3.70;3.17;;;;;;;10.89;63.33;98581.84;4979344;28;20211;-39
2021/01/20 13:11:44;;;;;;;2.97;2.77;;;;;;;11.00;63.91;98575.34;4979562;28;20211;-35
2021/01/20 13:14:33;;;;;;;3.80;2.57;;;;;;;11.03;63.79;98572.66;4979922;28;20215;-34
2021/01/20 13:17:21;;;;;;;2.73;2.40;;;;;;;10.97;63.49;98572.06;4998524;28;20354;-39
2021/01/20 13:20:10;;;;;;;2.33;2.13;;;;;;;11.16;63.85;98567.88;4998347;28;20354;-40